Time;durP1;ratioP1;P1;durP2;ratioP2;P2;SDS_P1;SDS_P2;PMS_P1;PMS_P2;Temp;Humidity;BMP_temperature;BMP_pressure;BME280_temperature;BME280_humidity;BME280_pressure;Samples;Min_cycle;Max_cycle;Signal;HPM_P1;HPM_P2
2023/03/10 00:02:17;;;;;;;20.48;13.20;;;;;;;3.73;100.00;98734.06;6245718;23;20484;-77
2023/03/10 00:04:42;;;;;;;19.20;13.10;;;;;;;3.74;100.00;98734.94;6246302;23;20077;-78
2023/03/10 00:07:07;;;;;;;17.35;12.65;;;;;;;3.58;100.00;98717.28;6245352;23;20345;-77
2023/03/10 00:09:33;;;;;;;18.60;12.65;;;;;;;3.67;100.00;98743.91;6245408;23;20000;-76
2023/03/10 00:11:58;;;;;;;18.02;13.25;;;;;;;3.67;100.00;98747.28;6245681;23;20500;-76
2023/03/10 00:14:23;;;;;;;17.77;12.35;;;;;;;2.44;100.00;98554.94;6244687;22;20026;-77
2023/03/10 00:16:49;;;;;;;18.42;12.95;;;;;;;3.66;100.00;98744.84;6245755;23;20075;-79
2023/03/10 00:19:14;;;;;;;20.60;13.75;;;;;;;2.88;100.00;98607.25;6246195;23;20031;-80
2023/03/10 00:21:39;;;;;;;18.77;13.32;;;;;;;2.54;100.00;98553.41;6260372;22;20023;-77
2023/03/10 00:24:17;;;;;;;19.25;12.82;;;;;;;3.82;100.00;98747.13;6276320;22;20021;-76
2023/03/10 00:26:44;;;;;;;18.85;13.25;;;;;;;3.74;100.00;98733.19;6276402;22;20000;-78
2023/03/10 00:29:10;;;;;;;21.00;14.18;;;;;;;3.70;100.00;98718.16;6276569;22;20328;-75
2023/03/10 00:31:36;;;;;;;19.45;12.85;;;;;;;3.83;100.00;98744.47;6276524;22;19995;-76
2023/03/10 00:34:01;;;;;;;20.05;13.05;;;;;;;3.85;100.00;98736.75;6276833;22;20014;-77
2023/03/10 00:36:29;;;;;;;19.48;13.73;;;;;;;3.85;100.00;98729.91;6276666;22;20007;-79
2023/03/10 00:38:59;;;;;;;19.75;13.73;;;;;;;3.88;100.00;98734.78;6275964;22;20010;-79
2023/03/10 00:41:27;;;;;;;20.42;13.65;;;;;;;3.91;100.00;98733.75;6276564;22;20014;-77
2023/03/10 00:43:52;;;;;;;20.63;13.73;;;;;;;3.93;100.00;98734.44;6276634;22;19995;-78
2023/03/10 00:46:18;;;;;;;20.20;14.10;;;;;;;3.92;100.00;98733.63;6276067;22;20035;-80
2023/03/10 00:48:44;;;;;;;20.63;13.70;;;;;;;3.94;100.00;98742.03;6276419;22;20031;-79
2023/03/10 00:51:10;;;;;;;20.23;14.02;;;;;;;3.96;100.00;98739.38;6275972;22;20421;-76
2023/03/10 00:53:37;;;;;;;19.92;14.18;;;;;;;3.89;100.00;98728.75;6276355;22;20008;-77
2023/03/10 00:56:10;;;;;;;20.38;14.52;;;;;;;4.05;100.00;98751.50;6276507;22;20475;-77
2023/03/10 00:58:36;;;;;;;18.33;14.25;;;;;;;4.05;100.00;98743.84;6276563;22;20000;-77
2023/03/10 01:01:03;;;;;;;20.10;12.98;;;;;;;4.01;100.00;98743.22;6275766;22;20003;-77
2023/03/10 01:03:28;;;;;;;20.10;13.88;;;;;;;4.11;100.00;98748.50;6276229;22;20000;-78
2023/03/10 01:05:55;;;;;;;24.30;14.02;;;;;;;3.96;100.00;98724.03;6276263;22;20007;-77
2023/03/10 01:08:21;;;;;;;18.70;13.80;;;;;;;4.02;100.00;98724.41;6276437;22;20328;-78
2023/03/10 01:10:47;;;;;;;18.67;13.82;;;;;;;4.16;100.00;98749.00;6275931;22;20484;-80
2023/03/10 01:13:14;;;;;;;18.20;13.55;;;;;;;4.15;100.00;98747.38;6276258;22;20010;-80
2023/03/10 01:15:43;;;;;;;20.27;13.57;;;;;;;4.07;100.00;98723.28;6276143;22;20057;-80
2023/03/10 01:18:08;;;;;;;20.92;13.38;;;;;;;4.05;100.00;98715.75;6276282;22;20015;-80
2023/03/10 01:20:34;;;;;;;20.50;14.57;;;;;;;4.18;100.00;98729.28;6249055;22;20015;-78
2023/03/10 01:22:59;;;;;;;22.05;14.27;;;;;;;4.11;100.00;98715.28;6276866;22;20038;-77
2023/03/10 01:25:27;;;;;;;24.52;15.80;;;;;;;4.20;100.00;98724.88;6275619;22;20011;-77
2023/03/10 01:27:53;;;;;;;21.95;14.85;;;;;;;4.22;100.00;98725.56;6249303;22;20014;-78
2023/03/10 01:30:18;;;;;;;21.45;13.80;;;;;;;4.06;100.00;98694.38;6275902;22;20003;-77
2023/03/10 01:32:44;;;;;;;20.17;14.68;;;;;;;4.05;100.00;98686.84;6276412;22;20439;-77
2023/03/10 01:35:09;;;;;;;22.10;14.90;;;;;;;4.09;100.00;98689.06;6276011;22;20355;-76
2023/03/10 01:37:35;;;;;;;23.35;14.77;;;;;;;4.27;100.00;98718.41;6275597;22;20006;-78
2023/03/10 01:40:04;;;;;;;22.27;14.82;;;;;;;4.18;100.00;98698.63;6275537;22;20000;-77
2023/03/10 01:42:29;;;;;;;22.52;15.32;;;;;;;4.28;100.00;98711.56;6276132;22;20004;-75
2023/03/10 01:45:08;;;;;;;21.92;15.50;;;;;;;4.29;100.00;98705.53;6276098;22;20087;-79
2023/03/10 01:47:33;;;;;;;22.65;15.13;;;;;;;4.34;100.00;98715.44;6275456;22;20392;-79
2023/03/10 01:49:59;;;;;;;21.30;15.35;;;;;;;4.36;100.00;98709.28;6248585;22;20050;-76
2023/03/10 01:52:30;;;;;;;23.65;15.02;;;;;;;4.39;100.00;98703.94;6276230;22;20082;-77
2023/03/10 01:55:08;;;;;;;22.38;15.18;;;;;;;4.41;100.00;98699.53;6275753;22;20030;-76
2023/03/10 01:57:54;;;;;;;24.45;15.38;;;;;;;3.32;100.00;98520.06;6250963;22;20016;-75
2023/03/10 02:00:21;;;;;;;23.10;14.98;;;;;;;4.44;100.00;98684.00;6245213;23;20007;-79
2023/03/10 02:02:49;;;;;;;24.67;15.18;;;;;;;4.44;100.00;98676.34;6245066;23;20004;-76
2023/03/10 02:05:15;;;;;;;24.70;15.07;;;;;;;4.44;100.00;98685.75;6245271;23;20011;-76
2023/03/10 02:07:42;;;;;;;22.90;14.95;;;;;;;4.37;100.00;98690.47;6245156;23;20039;-72
2023/03/10 02:10:09;;;;;;;21.48;14.75;;;;;;;4.37;100.00;98684.53;6245010;23;20457;-74
2023/03/10 02:12:35;;;;;;;24.05;15.07;;;;;;;4.44;100.00;98696.78;6246849;23;20004;-79
2023/03/10 02:15:00;;;;;;;25.08;15.63;;;;;;;4.53;100.00;98690.19;6220024;23;20015;-79
2023/03/10 02:17:26;;;;;;;23.85;15.55;;;;;;;4.42;100.00;98667.94;6246909;23;20004;-75
2023/03/10 02:20:04;;;;;;;21.83;14.77;;;;;;;4.57;100.00;98692.41;6247151;23;20105;-78
2023/03/10 02:22:31;;;;;;;22.88;14.68;;;;;;;4.48;100.00;98671.81;6247645;23;20054;-74
2023/03/10 02:25:41;;;;;;;22.38;15.02;;;;;;;4.65;100.00;98691.03;6247119;23;20373;-79
2023/03/10 02:28:06;;;;;;;21.95;14.55;;;;;;;4.64;100.00;98682.56;6095670;23;20444;-76
2023/03/10 02:30:37;;;;;;;22.30;14.82;;;;;;;4.58;100.00;98660.00;6095185;23;20014;-77
2023/03/10 02:33:10;;;;;;;24.67;15.63;;;;;;;4.63;100.00;98664.78;6095660;23;20531;-77
2023/03/10 02:35:35;;;;;;;21.95;14.70;;;;;;;4.48;100.00;98646.25;6095252;23;20401;-77
2023/03/10 02:38:01;;;;;;;20.33;14.73;;;;;;;4.40;100.00;98634.03;6095572;23;20010;-77
2023/03/10 02:40:35;;;;;;;21.42;14.48;;;;;;;4.50;100.00;98664.84;6095578;23;20006;-78
2023/03/10 02:43:22;;;;;;;20.80;14.48;;;;;;;4.38;100.00;98641.00;6095576;23;20530;-78
2023/03/10 02:45:49;;;;;;;21.05;13.90;;;;;;;4.27;100.00;98628.19;6071297;23;20062;-80
2023/03/10 02:48:24;;;;;;;21.45;14.43;;;;;;;4.35;100.00;98648.06;6095387;23;20014;-77
2023/03/10 02:50:50;;;;;;;22.40;14.25;;;;;;;4.24;100.00;98643.75;6095475;23;20017;-77
2023/03/10 02:53:22;;;;;;;20.55;13.50;;;;;;;4.04;100.00;98627.28;6095616;23;20010;-79
2023/03/10 02:55:48;;;;;;;20.70;13.52;;;;;;;4.06;100.00;98642.50;6095220;23;20090;-79
2023/03/10 02:58:14;;;;;;;20.10;13.60;;;;;;;4.05;100.00;98640.88;6095042;23;20054;-77
2023/03/10 03:00:41;;;;;;;19.60;13.05;;;;;;;3.92;100.00;98625.56;6095434;23;20014;-80
2023/03/10 03:03:09;;;;;;;19.98;13.75;;;;;;;4.03;100.00;98640.94;6236872;23;20058;-80
2023/03/10 03:05:35;;;;;;;21.02;13.70;;;;;;;4.05;100.00;98631.47;6246831;23;20079;-78
2023/03/10 03:08:00;;;;;;;23.17;14.60;;;;;;;4.11;100.00;98637.84;6246601;23;20004;-77
2023/03/10 03:10:26;;;;;;;21.20;14.07;;;;;;;4.18;100.00;98627.09;6246829;23;20058;-79
2023/03/10 03:12:51;;;;;;;20.58;13.82;;;;;;;4.21;100.00;98626.88;6246784;23;20004;-79
2023/03/10 03:15:18;;;;;;;22.25;15.00;;;;;;;4.18;100.00;98628.84;6246563;23;20048;-78
2023/03/10 03:17:43;;;;;;;21.77;13.63;;;;;;;4.23;100.00;98625.03;6246791;23;20306;-77
2023/03/10 03:20:13;;;;;;;20.15;13.93;;;;;;;4.22;100.00;98623.38;6246849;23;20058;-76
2023/03/10 03:22:44;;;;;;;19.88;13.55;;;;;;;4.19;100.00;98628.72;6246000;23;20003;-76
2023/03/10 03:25:11;;;;;;;19.17;12.57;;;;;;;4.08;100.00;98627.88;6246768;23;20325;-79
2023/03/10 03:27:37;;;;;;;21.50;13.55;;;;;;;3.91;100.00;98614.56;6218941;23;20377;-76
2023/03/10 03:30:10;;;;;;;18.83;13.15;;;;;;;3.98;100.00;98620.06;6270414;22;20008;-76
2023/03/10 03:32:36;;;;;;;19.92;13.07;;;;;;;3.87;100.00;98607.22;6246594;23;20000;-79
2023/03/10 03:35:02;;;;;;;19.75;13.20;;;;;;;3.82;100.00;98605.00;6218575;23;20437;-77
2023/03/10 03:37:28;;;;;;;20.50;13.63;;;;;;;3.90;100.00;98620.59;6246095;23;20527;-77
2023/03/10 03:39:53;;;;;;;19.10;13.05;;;;;;;3.63;100.00;98579.94;6246501;23;20039;-77
2023/03/10 03:42:19;;;;;;;19.80;13.63;;;;;;;3.78;100.00;98607.88;6218678;23;20417;-79
2023/03/10 03:44:44;;;;;;;19.52;13.48;;;;;;;3.82;100.00;98614.38;6246522;23;20048;-78
2023/03/10 03:47:09;;;;;;;19.92;13.45;;;;;;;3.72;100.00;98607.38;6246056;23;20012;-78
2023/03/10 03:49:36;;;;;;;18.33;12.85;;;;;;;3.63;100.00;98592.72;6246123;23;20033;-78
2023/03/10 03:52:03;;;;;;;19.65;13.30;;;;;;;3.83;100.00;98618.56;6246075;22;20030;-77
2023/03/10 03:54:29;;;;;;;20.15;13.60;;;;;;;3.86;100.00;98614.09;6246085;23;20004;-76
2023/03/10 03:56:54;;;;;;;16.65;12.73;;;;;;;3.78;100.00;98600.22;6258502;22;20433;-77
2023/03/10 03:59:19;;;;;;;20.88;13.93;;;;;;;3.92;100.00;98610.25;6276965;22;20035;-77
2023/03/10 04:01:45;;;;;;;19.92;13.30;;;;;;;4.00;100.00;98605.44;6276697;22;19999;-76
2023/03/10 04:04:10;;;;;;;21.27;13.65;;;;;;;3.95;100.00;98605.78;6276696;22;20003;-80
2023/03/10 04:06:35;;;;;;;19.67;12.95;;;;;;;4.03;100.00;98608.59;6276537;22;20031;-80
2023/03/10 04:09:01;;;;;;;19.55;13.55;;;;;;;4.09;100.00;98615.00;6276206;22;20008;-77
2023/03/10 04:11:26;;;;;;;21.23;13.98;;;;;;;4.11;100.00;98609.75;6276689;22;20094;-76
2023/03/10 04:13:51;;;;;;;20.20;13.82;;;;;;;4.16;100.00;98608.53;6276847;22;20417;-78
2023/03/10 04:16:17;;;;;;;20.67;13.75;;;;;;;4.24;100.00;98603.69;6276912;22;20011;-79
2023/03/10 04:18:43;;;;;;;20.77;11.57;;;;;;;4.36;100.00;98601.97;6276777;22;20075;-78
2023/03/10 04:21:09;;;;;;;17.98;11.60;;;;;;;4.44;100.00;98599.66;6276730;22;20471;-76
2023/03/10 04:23:34;;;;;;;20.50;12.50;;;;;;;4.39;100.00;98575.38;6276158;22;20007;-76
2023/03/10 04:26:00;;;;;;;18.65;10.57;;;;;;;4.73;100.00;98594.97;6248582;22;20003;-76
2023/03/10 04:28:28;;;;;;;26.35;10.00;;;;;;;4.94;100.00;98599.41;6275969;22;20071;-79
2023/03/10 04:30:53;;;;;;;21.70;9.07;;;;;;;5.12;100.00;98588.59;6276447;22;20003;-77
2023/03/10 04:33:18;;;;;;;21.25;7.85;;;;;;;5.31;100.00;98582.88;6276351;22;20000;-79
2023/03/10 04:35:47;;;;;;;17.73;7.90;;;;;;;5.37;100.00;98579.81;6276308;22;20000;-77
2023/03/10 04:38:13;;;;;;;17.85;7.75;;;;;;;5.54;100.00;98590.50;6276831;22;20035;-78
2023/03/10 04:40:38;;;;;;;20.00;8.10;;;;;;;5.72;100.00;98589.06;6276031;22;20061;-76
2023/03/10 04:43:04;;;;;;;20.95;7.85;;;;;;;5.73;100.00;98586.38;6276222;22;20034;-77
2023/03/10 04:48:18;;;;;;;19.45;6.93;;;;;;;4.70;100.00;98394.97;6248844;22;20028;-79
2023/03/10 04:51:06;;;;;;;19.50;6.93;;;;;;;5.87;100.00;98580.16;6245719;23;20008;-80
2023/03/10 04:53:38;;;;;;;18.90;6.85;;;;;;;5.90;100.00;98569.72;6245958;23;20329;-76
2023/03/10 04:56:06;;;;;;;19.15;7.10;;;;;;;5.76;100.00;98552.03;6245827;23;20000;-76
2023/03/10 04:58:33;;;;;;;18.33;7.10;;;;;;;5.83;100.00;98572.88;6245161;23;20000;-76
2023/03/10 05:00:58;;;;;;;16.17;6.53;;;;;;;5.93;100.00;98568.66;6245440;23;20031;-75
2023/03/10 05:03:24;;;;;;;18.35;6.25;;;;;;;5.87;100.00;98569.09;6245421;23;20009;-76
2023/03/10 05:05:49;;;;;;;21.88;6.53;;;;;;;5.78;100.00;98559.59;6245693;23;20007;-77
2023/03/10 05:08:15;;;;;;;21.63;6.32;;;;;;;5.86;100.00;98570.84;6217539;23;20016;-75
2023/03/10 05:10:42;;;;;;;23.23;6.70;;;;;;;5.92;100.00;98562.72;6245565;23;20000;-78
2023/03/10 05:13:11;;;;;;;14.38;5.75;;;;;;;5.97;100.00;98575.97;6245618;23;20004;-76
2023/03/10 05:15:41;;;;;;;18.30;5.60;;;;;;;5.99;100.00;98566.41;6245934;23;20000;-77
2023/03/10 05:18:07;;;;;;;23.05;6.30;;;;;;;5.96;100.00;98541.03;6246250;23;20008;-77
2023/03/10 05:20:33;;;;;;;16.45;6.00;;;;;;;6.21;100.00;98569.81;6245567;23;20439;-74
2023/03/10 05:22:58;;;;;;;20.92;5.95;;;;;;;6.26;100.00;98560.81;6245870;23;20095;-76
2023/03/10 05:25:24;;;;;;;21.02;6.55;;;;;;;6.28;100.00;98571.75;6245905;23;20008;-78
2023/03/10 05:27:49;;;;;;;16.55;5.80;;;;;;;6.10;100.00;98544.25;6217838;23;20015;-78
2023/03/10 05:30:15;;;;;;;19.52;6.40;;;;;;;6.18;100.00;98557.25;6245685;23;20008;-78
2023/03/10 05:32:42;;;;;;;20.10;6.78;;;;;;;6.13;100.00;98544.00;6245583;23;20402;-78
2023/03/10 05:35:08;;;;;;;19.98;6.20;;;;;;;6.31;100.00;98570.69;6245381;23;20004;-77
2023/03/10 05:37:43;;;;;;;17.90;6.53;;;;;;;6.32;100.00;98577.44;6245276;23;20425;-79
2023/03/10 05:40:12;;;;;;;25.70;7.20;;;;;;;6.36;100.00;98572.88;6245441;23;20038;-79
2023/03/10 05:42:37;;;;;;;19.52;6.57;;;;;;;6.33;100.00;98573.94;6245202;23;20337;-78
2023/03/10 05:45:04;;;;;;;18.33;6.43;;;;;;;6.20;100.00;98557.94;6245328;23;20028;-77
2023/03/10 05:47:30;;;;;;;21.45;6.97;;;;;;;6.18;100.00;98563.19;6250092;22;20091;-78
2023/03/10 05:49:55;;;;;;;19.20;6.97;;;;;;;6.24;100.00;98574.69;6278147;22;20010;-76
2023/03/10 05:52:21;;;;;;;22.08;7.07;;;;;;;6.25;100.00;98566.06;6278706;22;20004;-77
2023/03/10 05:54:46;;;;;;;21.08;7.05;;;;;;;6.26;100.00;98567.69;6278570;22;20022;-77
2023/03/10 05:57:11;;;;;;;22.38;8.20;;;;;;;6.27;100.00;98561.63;6278420;22;20007;-77
2023/03/10 05:59:36;;;;;;;17.58;6.72;;;;;;;6.42;100.00;98575.75;6277984;22;20328;-79
2023/03/10 06:02:02;;;;;;;21.30;6.50;;;;;;;6.43;100.00;98572.25;6278147;22;20007;-79
2023/03/10 06:04:31;;;;;;;25.92;7.30;;;;;;;6.32;100.00;98562.06;6278052;22;19999;-78
2023/03/10 06:06:59;;;;;;;24.75;7.03;;;;;;;6.35;100.00;98563.56;6278183;22;20008;-76
2023/03/10 06:09:25;;;;;;;31.48;7.60;;;;;;;6.39;100.00;98570.91;6278260;22;20325;-77
2023/03/10 06:11:50;;;;;;;24.30;6.75;;;;;;;6.39;100.00;98577.75;6277760;22;20011;-77
2023/03/10 06:14:16;;;;;;;27.58;8.27;;;;;;;6.42;100.00;98572.38;6277738;22;20003;-76
2023/03/10 06:16:41;;;;;;;25.77;8.10;;;;;;;6.50;100.00;98578.53;6278068;22;20004;-79
2023/03/10 06:19:06;;;;;;;20.40;7.25;;;;;;;6.56;100.00;98583.13;6278600;22;20007;-78
2023/03/10 06:21:32;;;;;;;23.63;7.05;;;;;;;6.60;100.00;98583.69;6277551;22;20082;-77
2023/03/10 06:23:58;;;;;;;25.65;6.97;;;;;;;6.60;100.00;98588.84;6277823;22;20056;-78
2023/03/10 06:26:23;;;;;;;22.85;6.25;;;;;;;6.61;100.00;98590.47;6277886;22;19999;-77
2023/03/10 06:28:48;;;;;;;28.45;6.93;;;;;;;6.63;100.00;98574.94;6277546;22;20007;-77
2023/03/10 06:31:17;;;;;;;19.40;6.40;;;;;;;6.44;100.00;98550.00;6277868;22;20004;-78
2023/03/10 06:33:43;;;;;;;21.70;6.68;;;;;;;6.55;100.00;98570.44;6278227;22;20329;-76
2023/03/10 06:36:11;;;;;;;21.02;7.95;;;;;;;6.72;100.00;98597.25;6277684;22;20011;-76
2023/03/10 06:38:37;;;;;;;26.15;8.20;;;;;;;6.64;100.00;98582.50;6277738;22;20050;-78
2023/03/10 06:41:03;;;;;;;20.67;7.38;;;;;;;6.78;100.00;98600.13;6277784;22;20007;-76
2023/03/10 06:43:30;;;;;;;24.95;7.25;;;;;;;6.84;100.00;98596.25;6277955;22;20004;-78
2023/03/10 06:45:56;;;;;;;30.25;7.97;;;;;;;6.90;100.00;98590.59;6277883;22;20006;-79
2023/03/10 06:48:21;;;;;;;28.00;10.02;;;;;;;6.94;100.00;98599.66;6277505;22;20023;-79
2023/03/10 06:50:47;;;;;;;25.48;10.90;;;;;;;6.96;100.00;98597.78;6277544;22;20010;-77
2023/03/10 06:53:15;;;;;;;26.30;9.43;;;;;;;6.93;100.00;98592.09;6277348;22;20050;-77
2023/03/10 06:55:41;;;;;;;23.85;8.63;;;;;;;6.96;100.00;98597.78;6277633;22;20416;-78
2023/03/10 06:58:06;;;;;;;22.88;7.25;;;;;;;7.01;100.00;98607.66;6277435;22;20049;-78
2023/03/10 07:00:32;;;;;;;20.98;6.70;;;;;;;6.85;100.00;98573.03;6277460;22;20035;-77
2023/03/10 07:02:57;;;;;;;23.45;7.13;;;;;;;6.94;100.00;98594.53;6277490;22;20003;-79
2023/03/10 07:05:25;;;;;;;32.95;14.35;;;;;;;6.87;100.00;98607.03;6277533;22;19996;-77
2023/03/10 07:07:51;;;;;;;30.67;14.20;;;;;;;6.76;100.00;98604.56;6249549;22;20008;-78
2023/03/10 07:10:17;;;;;;;33.80;14.90;;;;;;;6.66;100.00;98592.63;6277262;22;20309;-78
2023/03/10 07:12:42;;;;;;;33.53;14.32;;;;;;;6.71;100.00;98601.56;6277464;22;20298;-75
2023/03/10 07:15:08;;;;;;;31.40;14.63;;;;;;;6.67;100.00;98604.50;6277620;22;20000;-76
2023/03/10 07:17:34;;;;;;;29.88;15.65;;;;;;;6.41;100.00;98584.41;6277170;22;20508;-77
2023/03/10 07:19:59;;;;;;;23.92;14.73;;;;;;;6.33;100.00;98594.47;6277214;22;20077;-78
2023/03/10 07:22:25;;;;;;;27.48;14.50;;;;;;;6.42;100.00;98613.41;6277124;22;20007;-78
2023/03/10 07:24:53;;;;;;;25.95;13.98;;;;;;;6.11;100.00;98562.06;6277546;22;20000;-78
2023/03/10 07:27:19;;;;;;;24.40;13.25;;;;;;;6.49;100.00;98620.47;6277241;22;20003;-78
2023/03/10 07:29:44;;;;;;;26.70;14.57;;;;;;;6.44;100.00;98607.22;6276826;22;20014;-78
2023/03/10 07:32:09;;;;;;;28.52;14.90;;;;;;;6.48;100.00;98623.16;6277053;22;20027;-79
2023/03/10 07:34:35;;;;;;;27.15;15.10;;;;;;;6.47;100.00;98624.91;6276804;22;20010;-79
2023/03/10 07:37:00;;;;;;;27.77;14.43;;;;;;;6.44;100.00;98614.91;6276929;22;20004;-79
2023/03/10 07:39:25;;;;;;;27.00;15.07;;;;;;;6.51;100.00;98617.78;6276902;22;20006;-76
2023/03/10 07:41:51;;;;;;;29.85;14.45;;;;;;;6.49;100.00;98620.47;6276981;22;20000;-79
2023/03/10 07:52:36;;;;;;;27.38;15.35;;;;;;;6.93;100.00;98636.53;6275061;22;20387;-77
2023/03/10 07:55:14;;;;;;;29.50;15.10;;;;;;;6.89;100.00;98607.75;6276699;22;20079;-75
2023/03/10 07:57:49;;;;;;;26.13;11.15;;;;;;;7.30;100.00;98630.91;6276578;22;20328;-77
2023/03/10 08:00:21;;;;;;;30.05;12.80;;;;;;;7.14;100.00;98578.28;6261191;22;20019;-77
2023/03/10 08:02:49;;;;;;;;;;;;;;;7.52;100.00;98628.13;6277037;22;20440;-79
2023/03/10 08:05:15;;;;;;;22.30;10.20;;;;;;;7.58;100.00;98630.19;6276504;22;19989;-78
2023/03/10 08:07:41;;;;;;;24.45;10.68;;;;;;;7.68;100.00;98637.91;6276226;22;20074;-75
2023/03/10 08:10:07;;;;;;;23.00;9.82;;;;;;;7.84;100.00;98622.78;6275865;22;20011;-76
2023/03/10 08:12:32;;;;;;;23.10;9.52;;;;;;;7.96;100.00;98631.16;6276588;22;20006;-77
2023/03/10 08:14:58;;;;;;;23.85;9.50;;;;;;;8.08;100.00;98624.97;6276800;22;20074;-79
2023/03/10 08:17:29;;;;;;;22.38;9.07;;;;;;;8.20;100.00;98603.31;6277050;22;20004;-77
2023/03/10 08:19:57;;;;;;;24.15;9.73;;;;;;;8.64;100.00;98639.72;6276558;22;20310;-76
2023/03/10 08:22:23;;;;;;;22.77;8.30;;;;;;;8.87;100.00;98640.22;6276247;22;20436;-78
2023/03/10 08:24:48;;;;;;;21.42;9.02;;;;;;;9.00;100.00;98637.34;6276810;22;20004;-76
2023/03/10 08:27:13;;;;;;;23.75;9.30;;;;;;;9.03;100.00;98637.06;6276366;22;19999;-78
2023/03/10 08:29:38;;;;;;;19.52;8.45;;;;;;;8.99;100.00;98625.44;6276409;22;20000;-78
2023/03/10 08:32:04;;;;;;;21.02;7.35;;;;;;;9.02;100.00;98635.44;6276073;22;20420;-74
2023/03/10 08:34:49;;;;;;;22.17;6.45;;;;;;;8.39;100.00;98548.53;6262976;22;20073;-75
2023/03/10 08:37:17;;;;;;;21.80;6.75;;;;;;;9.00;100.00;98627.03;6219360;23;20086;-79
2023/03/10 08:39:43;;;;;;;17.67;5.80;;;;;;;9.04;100.00;98630.94;6245733;23;20000;-78
2023/03/10 08:42:10;;;;;;;18.83;5.22;;;;;;;9.00;100.00;98642.50;6245423;23;20005;-79
2023/03/10 08:44:36;;;;;;;15.43;4.85;;;;;;;8.98;100.00;98644.41;6245399;23;19996;-77
2023/03/10 08:47:01;;;;;;;14.10;4.70;;;;;;;8.93;100.00;98633.69;6245145;23;20058;-76
2023/03/10 08:49:27;;;;;;;16.23;3.65;;;;;;;8.88;100.00;98640.09;6245252;23;20079;-74
2023/03/10 08:51:52;;;;;;;15.23;4.43;;;;;;;8.91;100.00;98639.81;6245500;23;20003;-77
2023/03/10 08:54:19;;;;;;;17.23;3.67;;;;;;;9.02;100.00;98643.97;6245313;23;20008;-78
2023/03/10 08:56:45;;;;;;;14.02;4.10;;;;;;;9.02;100.00;98631.09;6245722;23;20425;-76
2023/03/10 08:59:10;;;;;;;18.27;3.95;;;;;;;9.24;100.00;98636.84;6245491;23;20007;-78
2023/03/10 09:01:37;;;;;;;16.25;3.85;;;;;;;9.43;100.00;98631.59;6245243;23;20004;-74
2023/03/10 09:04:04;;;;;;;14.70;4.40;;;;;;;9.43;100.00;98632.41;6245682;23;20024;-74
2023/03/10 09:06:30;;;;;;;14.52;3.95;;;;;;;9.18;100.00;98608.16;6245588;23;20372;-74
2023/03/10 09:08:56;;;;;;;14.13;3.55;;;;;;;9.19;100.00;98620.06;6245128;23;20000;-76
2023/03/10 09:11:30;;;;;;;15.95;3.83;;;;;;;9.22;100.00;98631.84;6245748;23;20008;-79
2023/03/10 09:13:55;;;;;;;12.13;4.13;;;;;;;9.05;100.00;98607.66;6245239;23;20004;-80
2023/03/10 09:16:21;;;;;;;10.52;3.55;;;;;;;9.14;100.00;98634.31;6245202;23;19996;-76
2023/03/10 09:18:47;;;;;;;12.05;3.33;;;;;;;9.02;100.00;98633.66;6245435;23;20007;-75
2023/03/10 09:21:14;;;;;;;15.68;3.90;;;;;;;8.85;100.00;98614.63;6245016;23;20007;-74
2023/03/10 09:23:41;;;;;;;11.38;3.10;;;;;;;8.91;100.00;98629.50;6245288;23;20000;-76
2023/03/10 09:26:07;;;;;;;10.50;3.20;;;;;;;8.86;100.00;98629.13;6245299;23;20004;-74
2023/03/10 09:28:32;;;;;;;8.45;2.80;;;;;;;8.80;100.00;98627.09;6245283;23;20000;-74
2023/03/10 09:30:58;;;;;;;14.30;3.60;;;;;;;8.85;100.00;98635.22;6245416;23;20038;-75
2023/03/10 09:33:23;;;;;;;11.65;2.80;;;;;;;8.91;100.00;98639.00;6245079;23;20061;-76
2023/03/10 09:35:49;;;;;;;14.23;3.20;;;;;;;8.98;100.00;98626.38;6244946;22;20008;-77
2023/03/10 09:38:16;;;;;;;15.02;3.55;;;;;;;8.88;100.00;98601.47;6245677;23;20012;-75
2023/03/10 09:40:48;;;;;;;11.82;3.00;;;;;;;9.11;100.00;98617.38;6245643;23;20425;-74
2023/03/10 09:43:18;;;;;;;13.63;3.70;;;;;;;9.19;100.00;98617.50;6244926;23;20004;-75
2023/03/10 09:45:55;;;;;;;9.20;3.10;;;;;;;9.13;100.00;98594.88;6245225;23;20003;-73
2023/03/10 09:48:35;;;;;;;12.85;2.95;;;;;;;9.30;100.00;98631.94;6244865;23;20008;-73
2023/03/10 09:51:27;;;;;;;14.45;3.22;;;;;;;9.25;100.00;98616.13;6245706;23;20008;-75
2023/03/10 09:54:15;;;;;;;12.35;3.90;;;;;;;9.36;100.00;98626.25;6218808;23;20008;-75
2023/03/10 09:56:41;;;;;;;11.52;3.40;;;;;;;9.11;100.00;98591.63;6129389;22;20010;-75
2023/03/10 09:59:15;;;;;;;8.40;2.72;;;;;;;9.28;100.00;98599.56;6245185;23;20004;-75
2023/03/10 10:01:45;;;;;;;11.05;2.72;;;;;;;9.55;100.00;98604.72;6244995;23;20004;-76
2023/03/10 10:04:34;;;;;;;13.63;3.00;;;;;;;9.98;100.00;98634.97;6245485;23;20014;-76
2023/03/10 10:07:01;;;;;;;9.32;2.65;;;;;;;10.04;100.00;98643.91;6244940;23;20004;-76
2023/03/10 10:09:46;;;;;;;8.63;2.22;;;;;;;10.00;100.00;98650.28;6245417;23;20055;-79
2023/03/10 10:12:14;;;;;;;7.93;2.45;;;;;;;9.88;100.00;98654.03;6218629;23;20441;-77
2023/03/10 10:14:40;;;;;;;9.50;3.25;;;;;;;9.82;100.00;98654.59;6244962;23;20058;-75
2023/03/10 10:17:24;;;;;;;8.55;2.00;;;;;;;9.80;100.00;98657.31;6244775;23;20372;-76
2023/03/10 10:19:51;;;;;;;10.90;2.72;;;;;;;9.69;100.00;98650.59;6244861;23;20004;-80
2023/03/10 10:22:23;;;;;;;11.45;2.97;;;;;;;9.73;100.00;98654.53;6245050;23;20011;-75
2023/03/10 10:25:03;;;;;;;8.25;1.95;;;;;;;9.74;100.00;98653.56;6245025;23;20414;-78
2023/03/10 10:27:31;;;;;;;9.32;2.30;;;;;;;9.81;100.00;98655.56;6244652;23;20004;-79
2023/03/10 10:29:57;;;;;;;8.10;1.95;;;;;;;9.82;100.00;98631.41;6245500;23;20000;-77
2023/03/10 10:32:23;;;;;;;9.80;2.00;;;;;;;9.99;100.00;98654.63;6245866;23;20018;-75
2023/03/10 10:34:48;;;;;;;9.52;1.98;;;;;;;10.06;100.00;98668.56;6245310;23;20075;-73
2023/03/10 10:37:22;;;;;;;9.50;2.30;;;;;;;10.04;100.00;98662.75;6219681;23;20004;-76
2023/03/10 10:39:50;;;;;;;12.55;3.40;;;;;;;9.93;100.00;98650.06;6246452;23;20004;-81
2023/03/10 10:42:25;;;;;;;11.10;3.03;;;;;;;9.97;100.00;98661.72;6246392;23;20497;-83
2023/03/10 10:44:55;;;;;;;9.15;2.65;;;;;;;9.79;100.00;98642.81;6220148;23;20004;-77
2023/03/10 10:47:35;;;;;;;8.32;2.92;;;;;;;9.85;100.00;98659.50;6246500;23;20079;-80
2023/03/10 10:50:20;;;;;;;10.85;3.00;;;;;;;9.77;100.00;98658.44;6246528;23;20011;-74
2023/03/10 10:52:52;;;;;;;9.15;2.80;;;;;;;9.56;100.00;98629.53;6246856;23;20303;-78
2023/03/10 10:55:33;;;;;;;10.52;2.92;;;;;;;9.57;100.00;98643.22;6246631;23;20371;-78
2023/03/10 11:01:26;;;;;;;8.80;2.70;;;;;;;9.41;100.00;98654.13;6246170;22;20113;-77
2023/03/10 11:04:17;;;;;;;10.07;2.60;;;;;;;9.41;100.00;98652.38;6245931;23;20460;-78
2023/03/10 11:06:42;;;;;;;12.25;2.60;;;;;;;8.28;100.00;98440.66;6296590;22;20007;-79
2023/03/10 11:09:20;;;;;;;8.40;2.92;;;;;;;9.73;100.00;98645.97;6308017;22;20450;-81
2023/03/10 11:12:00;;;;;;;9.93;2.28;;;;;;;9.96;100.00;98647.19;6254399;22;20140;-79
2023/03/10 11:15:06;;;;;;;7.85;2.22;;;;;;;10.18;100.00;98642.56;6308601;22;20030;-75
2023/03/10 11:17:46;;;;;;;8.10;2.60;;;;;;;10.17;100.00;98625.47;6213641;23;20329;-81
2023/03/10 11:20:14;;;;;;;9.75;2.90;;;;;;;10.27;100.00;98641.72;6213397;23;20008;-81
2023/03/10 11:22:45;;;;;;;10.43;2.85;;;;;;;9.96;100.00;98589.66;6213652;23;20013;-80
2023/03/10 11:25:26;;;;;;;12.02;3.47;;;;;;;10.26;100.00;98634.94;6213381;23;20004;-81
2023/03/10 11:28:16;;;;;;;8.57;2.57;;;;;;;10.17;100.00;98628.03;6243862;22;20020;-81
2023/03/10 11:31:29;;;;;;;8.85;3.15;;;;;;;10.09;100.00;98623.63;6277060;22;20031;-77
2023/03/10 11:34:21;;;;;;;9.02;3.17;;;;;;;9.98;100.00;98618.69;6153597;23;20005;-80
2023/03/10 11:36:53;;;;;;;8.82;3.20;;;;;;;9.87;100.00;98611.97;6153512;23;20088;-80
2023/03/10 11:39:30;;;;;;;9.90;3.85;;;;;;;9.87;100.00;98617.13;6129526;23;20097;-78
2023/03/10 11:42:19;;;;;;;7.78;2.53;;;;;;;9.89;100.00;98607.47;6153722;23;20009;-80
2023/03/10 11:44:59;;;;;;;9.48;2.83;;;;;;;9.71;100.00;98581.69;6153245;23;20509;-77